createdAt,value
2022-11-16T00:00:05.546Z,10.3
2022-11-16T00:01:02.210Z,10.3
2022-11-16T00:02:01.458Z,10.3
2022-11-16T00:03:01.356Z,10.3
2022-11-16T00:04:01.416Z,10.3
2022-11-16T00:05:02.385Z,10.2
2022-11-16T00:06:02.421Z,10.2
2022-11-16T00:07:02.366Z,10.2
2022-11-16T00:08:01.550Z,10.1
2022-11-16T00:09:01.606Z,10.1
2022-11-16T00:10:01.510Z,10.2
2022-11-16T00:11:01.565Z,10.2
2022-11-16T00:12:01.515Z,10.2
2022-11-16T00:13:01.567Z,10.2
2022-11-16T00:14:01.448Z,10.2
2022-11-16T00:15:01.505Z,10.2
2022-11-16T00:16:01.404Z,10.2
2022-11-16T00:17:01.367Z,10.1
2022-11-16T00:18:01.418Z,10.1
2022-11-16T00:19:02.399Z,10.2
2022-11-16T00:20:02.315Z,10.1
2022-11-16T00:21:02.415Z,10.2
2022-11-16T00:22:02.299Z,10.2
2022-11-16T00:23:01.534Z,10.2
2022-11-16T00:24:01.480Z,10.2
2022-11-16T00:25:01.399Z,10.3
2022-11-16T00:26:01.348Z,10.2
2022-11-16T00:27:02.434Z,10.2
2022-11-16T00:28:02.312Z,10.2
2022-11-16T00:29:02.350Z,10.3
2022-11-16T00:30:02.292Z,10.2
2022-11-16T00:31:02.328Z,10.2
2022-11-16T00:32:01.830Z,10.2
2022-11-16T00:33:01.879Z,10.3
2022-11-16T00:34:01.736Z,10.3
2022-11-16T00:35:01.797Z,10.3
2022-11-16T00:36:01.662Z,10.3
2022-11-16T00:37:01.690Z,10.3
2022-11-16T00:38:01.584Z,10.4
2022-11-16T00:39:01.646Z,10.3
2022-11-16T00:40:01.526Z,10.3
2022-11-16T00:41:01.579Z,10.2
2022-11-16T00:42:01.464Z,10.1
2022-11-16T00:43:01.592Z,10.1
2022-11-16T00:44:01.406Z,10.3
2022-11-16T00:45:01.479Z,10.3
2022-11-16T00:46:01.397Z,10.1
2022-11-16T00:47:02.031Z,10.3
2022-11-16T00:48:02.043Z,10.3
2022-11-16T00:49:01.959Z,10.2
2022-11-16T00:50:01.881Z,10.2
2022-11-16T00:51:01.901Z,10.3
2022-11-16T00:52:01.866Z,10.3
2022-11-16T00:53:01.743Z,10.3
2022-11-16T00:54:01.785Z,10.3
2022-11-16T00:55:01.668Z,10.3
2022-11-16T00:56:01.685Z,10.3
2022-11-16T00:57:01.581Z,10.3
2022-11-16T00:58:01.594Z,10.3
2022-11-16T00:59:01.503Z,10.1
2022-11-16T01:00:01.565Z,10.1
2022-11-16T01:01:01.481Z,10.2
2022-11-16T01:02:01.678Z,10.2
2022-11-16T01:03:01.697Z,10.2
2022-11-16T01:04:01.626Z,10.3
2022-11-16T01:05:01.683Z,10.3
2022-11-16T01:06:01.510Z,10.2
2022-11-16T01:07:01.605Z,10.1
2022-11-16T01:08:01.597Z,10.1
2022-11-16T01:09:01.611Z,10.2
2022-11-16T01:10:01.498Z,10.3
2022-11-16T01:11:01.545Z,10.3
2022-11-16T01:12:01.383Z,10.4
2022-11-16T01:13:01.553Z,10.4
2022-11-16T01:14:01.309Z,10.3
2022-11-16T01:15:02.385Z,10.3
2022-11-16T01:16:02.243Z,10.2
2022-11-16T01:17:02.228Z,10.2
2022-11-16T01:18:02.304Z,10.2
2022-11-16T01:19:02.753Z,10.1
2022-11-16T01:20:01.767Z,10.1
2022-11-16T01:21:01.912Z,10.1
2022-11-16T01:22:01.764Z,10
2022-11-16T01:23:01.810Z,9.9
2022-11-16T01:24:02.015Z,9.8
2022-11-16T01:25:01.859Z,9.9
2022-11-16T01:26:01.848Z,9.9
2022-11-16T01:27:01.908Z,9.9
2022-11-16T01:28:01.766Z,10
2022-11-16T01:29:01.764Z,10
2022-11-16T01:30:01.849Z,10
2022-11-16T01:31:01.674Z,9.9
2022-11-16T01:32:01.638Z,9.9
2022-11-16T01:33:01.733Z,9.9
2022-11-16T01:34:01.588Z,9.9
2022-11-16T01:35:01.637Z,9.9
2022-11-16T01:36:01.492Z,10
2022-11-16T01:37:01.594Z,10
2022-11-16T01:38:01.516Z,9.9
2022-11-16T01:39:01.588Z,9.9
2022-11-16T01:40:01.401Z,10
2022-11-16T01:41:01.388Z,10
2022-11-16T01:42:02.433Z,9.9
2022-11-16T01:43:02.278Z,10
2022-11-16T01:44:02.329Z,10.1
2022-11-16T01:45:02.317Z,10.1
2022-11-16T01:46:02.390Z,10
2022-11-16T01:47:01.953Z,10
2022-11-16T01:48:02.015Z,10.1
2022-11-16T01:49:01.933Z,10.1
2022-11-16T01:50:01.890Z,10.1
2022-11-16T01:51:02.022Z,10.2
2022-11-16T01:52:01.856Z,10.1
2022-11-16T01:53:01.888Z,10.2
2022-11-16T01:54:01.915Z,10.1
2022-11-16T01:55:01.890Z,10.1
2022-11-16T01:56:01.856Z,10.2
2022-11-16T01:57:01.936Z,10.3
2022-11-16T01:58:01.791Z,10.2
2022-11-16T01:59:01.784Z,10.1
2022-11-16T02:00:01.727Z,10.1
2022-11-16T02:01:01.637Z,10.2
2022-11-16T02:02:01.709Z,10.2
2022-11-16T02:03:01.750Z,10.2
2022-11-16T02:04:01.623Z,10.2
2022-11-16T02:05:01.662Z,10.2
2022-11-16T02:06:01.532Z,10.1
2022-11-16T02:07:01.705Z,10
2022-11-16T02:08:01.738Z,10.1
2022-11-16T02:09:01.750Z,10
2022-11-16T02:10:01.645Z,10.1
2022-11-16T02:11:01.752Z,10.1
2022-11-16T02:12:01.663Z,10
2022-11-16T02:13:01.777Z,9.9
2022-11-16T02:14:01.627Z,9.9
2022-11-16T02:15:01.755Z,9.9
2022-11-16T02:16:01.581Z,9.8
2022-11-16T02:17:01.519Z,9.9
2022-11-16T02:18:01.639Z,9.9
2022-11-16T02:19:01.420Z,9.9
2022-11-16T02:20:01.503Z,9.8
2022-11-16T02:21:02.390Z,9.8
2022-11-16T02:22:01.823Z,9.9
2022-11-16T02:23:02.277Z,9.9
2022-11-16T02:24:02.149Z,9.9
2022-11-16T02:25:02.259Z,10
2022-11-16T02:26:02.068Z,10
2022-11-16T02:27:02.163Z,9.9
2022-11-16T02:28:02.054Z,9.9
2022-11-16T02:29:02.098Z,9.8
2022-11-16T02:30:02.227Z,9.9
2022-11-16T02:31:02.024Z,9.9
2022-11-16T02:32:02.081Z,9.9
2022-11-16T02:33:02.118Z,10
2022-11-16T02:34:02.008Z,9.9
2022-11-16T02:35:01.962Z,9.9
2022-11-16T02:36:02.076Z,9.9
2022-11-16T02:37:01.895Z,9.8
2022-11-16T02:38:01.867Z,9.8
2022-11-16T02:39:02.073Z,9.8
2022-11-16T02:40:01.878Z,9.6
2022-11-16T02:41:01.834Z,9.6
2022-11-16T02:42:01.897Z,9.6
2022-11-16T02:43:01.822Z,9.7
2022-11-16T02:44:01.815Z,9.7
2022-11-16T02:45:01.818Z,9.7
2022-11-16T02:46:01.696Z,9.8
2022-11-16T02:47:01.757Z,9.7
2022-11-16T02:48:02.182Z,9.7
2022-11-16T02:49:01.995Z,9.8
2022-11-16T02:50:02.176Z,9.6
2022-11-16T02:51:02.207Z,9.7
2022-11-16T02:52:02.128Z,9.8
2022-11-16T02:53:02.268Z,9.8
2022-11-16T02:54:02.109Z,9.9
2022-11-16T02:55:02.206Z,9.8
2022-11-16T02:56:02.039Z,9.9
2022-11-16T02:57:02.276Z,9.9
2022-11-16T02:58:02.068Z,9.7
2022-11-16T02:59:02.197Z,9.7
2022-11-16T03:00:02.072Z,9.8
2022-11-16T03:01:02.241Z,9.8
2022-11-16T03:02:02.207Z,9.8
2022-11-16T03:03:02.272Z,9.8
2022-11-16T03:04:02.147Z,9.9
2022-11-16T03:05:02.208Z,9.9
2022-11-16T03:06:02.089Z,9.8
2022-11-16T03:07:02.235Z,9.7
2022-11-16T03:08:02.201Z,9.8
2022-11-16T03:09:02.386Z,9.8
2022-11-16T03:10:02.194Z,9.8
2022-11-16T03:11:02.418Z,9.8
2022-11-16T03:12:02.206Z,9.8
2022-11-16T03:13:02.325Z,9.8
2022-11-16T03:14:02.168Z,9.8
2022-11-16T03:15:02.384Z,9.8
2022-11-16T03:16:02.264Z,9.9
2022-11-16T03:17:02.236Z,9.9
2022-11-16T03:18:02.350Z,10
2022-11-16T03:19:02.243Z,9.9
2022-11-16T03:20:02.191Z,9.8
2022-11-16T03:21:02.166Z,9.9
2022-11-16T03:22:02.261Z,9.8
2022-11-16T03:23:02.139Z,9.8
2022-11-16T03:24:01.424Z,9.8
2022-11-16T03:25:01.313Z,9.8
2022-11-16T03:26:02.447Z,9.9
2022-11-16T03:27:02.289Z,9.8
2022-11-16T03:28:02.317Z,9.8
2022-11-16T03:29:02.240Z,9.8
2022-11-16T03:30:02.315Z,9.7
2022-11-16T03:31:02.131Z,9.7
2022-11-16T03:32:02.136Z,9.8
2022-11-16T03:33:02.270Z,9.8
2022-11-16T03:34:02.097Z,9.7
2022-11-16T03:35:02.210Z,9.8
2022-11-16T03:36:02.031Z,9.8
2022-11-16T03:37:02.109Z,9.8
2022-11-16T03:38:01.951Z,9.9
2022-11-16T03:39:02.022Z,9.9
2022-11-16T03:40:02.224Z,9.9
2022-11-16T03:41:02.037Z,9.9
2022-11-16T03:42:02.108Z,9.9
2022-11-16T03:43:01.960Z,9.8
2022-11-16T03:44:01.938Z,9.8
2022-11-16T03:45:02.145Z,9.7
2022-11-16T03:46:01.956Z,9.8
2022-11-16T03:47:01.868Z,9.7
2022-11-16T03:48:01.969Z,9.8
2022-11-16T03:49:01.799Z,9.8
2022-11-16T03:50:02.041Z,9.8
2022-11-16T03:51:02.162Z,9.8
2022-11-16T03:52:01.994Z,9.7
2022-11-16T03:53:01.964Z,9.7
2022-11-16T03:54:02.168Z,9.7
2022-11-16T03:55:01.945Z,9.6
2022-11-16T03:56:01.981Z,9.7
2022-11-16T03:57:01.962Z,9.7
2022-11-16T03:58:01.916Z,9.7
2022-11-16T03:59:01.933Z,9.7
2022-11-16T04:00:01.796Z,9.8
2022-11-16T04:01:01.811Z,9.7
2022-11-16T04:02:01.840Z,9.6
2022-11-16T04:03:01.914Z,9.6
2022-11-16T04:04:01.768Z,9.6
2022-11-16T04:05:01.749Z,9.5
2022-11-16T04:06:01.819Z,9.5
2022-11-16T04:07:01.725Z,9.6
2022-11-16T04:08:01.810Z,9.6
2022-11-16T04:09:01.828Z,9.6
2022-11-16T04:10:01.717Z,9.7
2022-11-16T04:11:01.786Z,9.5
2022-11-16T04:12:01.628Z,9.5
2022-11-16T04:13:01.630Z,9.6
2022-11-16T04:14:04.127Z,9.6
2022-11-16T04:15:01.916Z,9.6
2022-11-16T04:16:01.905Z,9.6
2022-11-16T04:17:01.762Z,9.5
2022-11-16T04:18:01.720Z,9.5
2022-11-16T04:19:01.783Z,9.5
2022-11-16T04:20:01.585Z,9.6
2022-11-16T04:21:01.606Z,9.6
2022-11-16T04:22:01.485Z,9.5
2022-11-16T04:23:01.518Z,9.5
2022-11-16T04:24:01.421Z,9.6
2022-11-16T04:25:01.501Z,9.5
2022-11-16T04:26:01.352Z,9.6
2022-11-16T04:27:01.420Z,9.5
2022-11-16T04:28:02.381Z,9.5
2022-11-16T04:29:02.268Z,9.6
2022-11-16T04:30:02.344Z,9.5
2022-11-16T04:31:02.241Z,9.5
2022-11-16T04:32:02.168Z,9.5
2022-11-16T04:33:02.246Z,9.5
2022-11-16T04:34:02.135Z,9.5
2022-11-16T04:35:02.257Z,9.5
2022-11-16T04:36:02.180Z,9.5
2022-11-16T04:37:02.193Z,9.6
2022-11-16T04:38:02.049Z,9.5
2022-11-16T04:39:02.087Z,9.5
2022-11-16T04:40:01.990Z,9.6
2022-11-16T04:41:01.973Z,9.6
2022-11-16T04:42:02.008Z,9.3
2022-11-16T04:43:01.866Z,9.5
2022-11-16T04:44:01.824Z,9.4
2022-11-16T04:45:01.808Z,9.5
2022-11-16T04:46:01.694Z,9.5
2022-11-16T04:47:01.855Z,9.4
2022-11-16T04:48:01.837Z,9.5
2022-11-16T04:49:01.759Z,9.5
2022-11-16T04:50:01.711Z,9.4
2022-11-16T04:51:01.863Z,9.4
2022-11-16T04:52:01.716Z,9.5
2022-11-16T04:53:01.804Z,9.5
2022-11-16T04:54:01.665Z,9.5
2022-11-16T04:55:01.771Z,9.4
2022-11-16T04:56:01.611Z,9.5
2022-11-16T04:57:01.692Z,9.5
2022-11-16T04:58:01.544Z,9.4
2022-11-16T04:59:01.754Z,9.5
2022-11-16T05:00:01.510Z,9.5
2022-11-16T05:01:01.594Z,9.4
2022-11-16T05:02:01.469Z,9.4
2022-11-16T05:03:01.983Z,9.5
2022-11-16T05:04:01.866Z,9.5
2022-11-16T05:05:01.817Z,9.4
2022-11-16T05:06:01.885Z,9.5
2022-11-16T05:07:01.763Z,9.5
2022-11-16T05:08:01.805Z,9.5
2022-11-16T05:09:01.845Z,9.6
2022-11-16T05:10:01.750Z,9.6
2022-11-16T05:11:01.670Z,9.5
2022-11-16T05:12:01.740Z,9.5
2022-11-16T05:13:01.602Z,9.4
2022-11-16T05:14:01.675Z,9.4
2022-11-16T05:15:01.482Z,9.5
2022-11-16T05:16:01.549Z,9.5
2022-11-16T05:17:01.343Z,9.5
2022-11-16T05:18:02.525Z,9.5
2022-11-16T05:19:02.609Z,9.5
2022-11-16T05:20:01.424Z,9.6
2022-11-16T05:21:01.354Z,9.4
2022-11-16T05:22:02.411Z,9.5
2022-11-16T05:23:02.319Z,9.5
2022-11-16T05:24:02.402Z,9.5
2022-11-16T05:25:02.314Z,9.6
2022-11-16T05:26:02.391Z,9.5
2022-11-16T05:27:02.254Z,9.5
2022-11-16T05:28:02.265Z,9.4
2022-11-16T05:29:02.215Z,9.4
2022-11-16T05:30:02.291Z,9.4
2022-11-16T05:31:02.208Z,9.5
2022-11-16T05:32:01.932Z,9.5
2022-11-16T05:33:01.996Z,9.5
2022-11-16T05:34:01.875Z,9.6
2022-11-16T05:35:01.834Z,9.3
2022-11-16T05:36:01.887Z,9.4
2022-11-16T05:37:01.746Z,9.4
2022-11-16T05:38:01.765Z,9.5
2022-11-16T05:39:01.841Z,9.5
2022-11-16T05:40:01.678Z,9.5
2022-11-16T05:41:01.663Z,9.5
2022-11-16T05:42:01.685Z,9.5
2022-11-16T05:43:01.581Z,9.3
2022-11-16T05:44:01.616Z,9.3
2022-11-16T05:45:01.500Z,9.4
2022-11-16T05:46:01.549Z,9.5
2022-11-16T05:47:01.424Z,9.5
2022-11-16T05:48:01.473Z,9.6
2022-11-16T05:49:01.345Z,9.5
2022-11-16T05:50:02.396Z,9.5
2022-11-16T05:51:02.316Z,9.5
2022-11-16T05:52:02.400Z,9.5
2022-11-16T05:53:02.284Z,9.5
2022-11-16T05:54:02.356Z,9.6
2022-11-16T05:55:02.294Z,9.6
2022-11-16T05:56:02.489Z,9.6
2022-11-16T05:57:01.530Z,9.6
2022-11-16T05:58:01.601Z,9.7
2022-11-16T05:59:01.438Z,9.7
2022-11-16T06:00:01.482Z,9.6
2022-11-16T06:01:01.334Z,9.7
2022-11-16T06:02:02.329Z,9.7
2022-11-16T06:03:02.363Z,9.7
2022-11-16T06:04:01.405Z,9.7
2022-11-16T06:05:01.415Z,9.7
2022-11-16T06:06:02.746Z,9.8
2022-11-16T06:07:01.704Z,9.7
2022-11-16T06:08:01.751Z,9.7
2022-11-16T06:09:01.755Z,9.7
2022-11-16T06:10:01.680Z,9.7
2022-11-16T06:11:01.703Z,9.7
2022-11-16T06:12:01.609Z,9.7
2022-11-16T06:13:01.668Z,9.8
2022-11-16T06:14:01.550Z,9.8
2022-11-16T06:15:01.591Z,9.7
2022-11-16T06:16:01.445Z,9.7
2022-11-16T06:17:01.397Z,9.7
2022-11-16T06:18:01.527Z,9.7
2022-11-16T06:19:01.398Z,9.7
2022-11-16T06:20:01.413Z,9.8
2022-11-16T06:21:02.327Z,9.8
2022-11-16T06:22:02.246Z,9.9
2022-11-16T06:23:02.345Z,9.9
2022-11-16T06:24:02.256Z,9.9
2022-11-16T06:25:02.292Z,9.9
2022-11-16T06:26:02.239Z,9.8
2022-11-16T06:27:02.252Z,9.8
2022-11-16T06:28:06.735Z,9.8
2022-11-16T06:29:02.109Z,9.9
2022-11-16T06:30:02.143Z,9.9
2022-11-16T06:31:02.020Z,9.7
2022-11-16T06:32:01.906Z,9.7
2022-11-16T06:33:01.958Z,9.7
2022-11-16T06:34:01.863Z,9.9
2022-11-16T06:35:01.759Z,9.9
2022-11-16T06:36:01.778Z,9.8
2022-11-16T06:37:01.637Z,9.8
2022-11-16T06:38:01.695Z,9.9
2022-11-16T06:39:01.570Z,9.9
2022-11-16T06:40:01.611Z,9.9
2022-11-16T06:41:02.371Z,9.8
2022-11-16T06:42:04.435Z,9.8
2022-11-16T06:43:02.242Z,9.9
2022-11-16T06:44:02.259Z,9.8
2022-11-16T06:45:02.280Z,9.8
2022-11-16T06:46:02.311Z,9.7
2022-11-16T06:47:02.085Z,9.6
2022-11-16T06:48:02.053Z,9.7
2022-11-16T06:49:02.020Z,9.7
2022-11-16T06:50:01.980Z,9.7
2022-11-16T06:51:02.013Z,9.7
2022-11-16T06:52:02.000Z,9.7
2022-11-16T06:53:01.961Z,9.6
2022-11-16T06:54:01.941Z,9.5
2022-11-16T06:55:01.903Z,9.6
2022-11-16T06:56:01.892Z,9.6
2022-11-16T06:57:01.839Z,9.4
2022-11-16T06:58:01.826Z,9.5
2022-11-16T06:59:01.785Z,9.4
2022-11-16T07:00:01.673Z,9.5
2022-11-16T07:01:01.617Z,9.5
2022-11-16T07:02:01.571Z,9.4
2022-11-16T07:03:01.641Z,9.5
2022-11-16T07:04:01.582Z,9.3
2022-11-16T07:05:03.644Z,9.3
2022-11-16T07:06:01.956Z,9.2
2022-11-16T07:07:01.980Z,9.3
2022-11-16T07:08:01.957Z,9.3
2022-11-16T07:09:01.909Z,9.3
2022-11-16T07:10:01.889Z,9.3
2022-11-16T07:11:04.240Z,9.3
2022-11-16T07:12:02.175Z,9.2
2022-11-16T07:13:02.140Z,9.3
2022-11-16T07:14:02.094Z,9.4
2022-11-16T07:15:02.048Z,9.4
2022-11-16T07:16:02.002Z,9.2
2022-11-16T07:17:04.020Z,9.2
2022-11-16T07:18:01.390Z,9.3
2022-11-16T07:19:01.343Z,9.1
2022-11-16T07:20:02.319Z,9.2
2022-11-16T07:21:02.288Z,9.3
2022-11-16T07:22:02.242Z,9.3
2022-11-16T07:23:02.195Z,9.3
2022-11-16T07:24:02.174Z,9.3
2022-11-16T07:25:02.152Z,9.3
2022-11-16T07:26:02.114Z,9.3
2022-11-16T07:27:02.082Z,9.3
2022-11-16T07:28:02.044Z,9.2
2022-11-16T07:29:02.042Z,9.3
2022-11-16T07:30:01.983Z,9.3
2022-11-16T07:31:02.040Z,9.2
2022-11-16T07:32:01.720Z,9.2
2022-11-16T07:33:01.676Z,9.1
2022-11-16T07:34:01.628Z,9.2
2022-11-16T07:35:01.542Z,9.2
2022-11-16T07:36:01.496Z,9.4
2022-11-16T07:37:01.451Z,9.4
2022-11-16T07:38:01.407Z,9.4
2022-11-16T07:39:01.352Z,9.4
2022-11-16T07:40:02.338Z,9.3
2022-11-16T07:41:02.321Z,9.4
2022-11-16T07:42:02.238Z,9.3
2022-11-16T07:43:02.215Z,9.3
2022-11-16T07:44:02.285Z,9.4
2022-11-16T07:45:02.163Z,9.4
2022-11-16T07:46:21.497Z,9.4
2022-11-16T07:47:01.520Z,9.4
2022-11-16T07:48:01.472Z,9.4
2022-11-16T07:49:01.435Z,9.4
2022-11-16T07:50:01.390Z,9.5
2022-11-16T07:51:01.345Z,9.4
2022-11-16T07:52:02.293Z,9.3
2022-11-16T07:53:02.264Z,9.3
2022-11-16T07:54:02.226Z,9.4
2022-11-16T07:55:02.252Z,9.3
2022-11-16T07:56:02.244Z,9.5
2022-11-16T07:57:02.177Z,9.5
2022-11-16T07:58:02.145Z,9.5
2022-11-16T07:59:02.101Z,9.5
2022-11-16T08:00:02.103Z,9.4
2022-11-16T08:01:02.006Z,9.3
2022-11-16T08:02:01.947Z,9.4
2022-11-16T08:03:01.984Z,9.4
2022-11-16T08:04:01.938Z,9.4
2022-11-16T08:05:01.907Z,9.5
2022-11-16T08:06:01.809Z,9.5
2022-11-16T08:07:01.805Z,9.3
2022-11-16T08:08:01.743Z,9.4
2022-11-16T08:09:01.696Z,9.4
2022-11-16T08:10:01.698Z,9.3
2022-11-16T08:11:01.774Z,9.4
2022-11-16T08:12:01.721Z,9.3
2022-11-16T08:13:01.708Z,9.3
2022-11-16T08:14:01.643Z,9.4
2022-11-16T08:15:01.583Z,9.4
2022-11-16T08:16:01.549Z,9.4
2022-11-16T08:17:02.333Z,9.4
2022-11-16T08:18:02.333Z,9.4
2022-11-16T08:19:01.360Z,9.5
2022-11-16T08:20:02.330Z,9.5
2022-11-16T08:21:01.465Z,9.5
2022-11-16T08:22:01.436Z,9.5
2022-11-16T08:23:01.360Z,9.5
2022-11-16T08:24:02.313Z,9.5
2022-11-16T08:25:02.285Z,9.3
2022-11-16T08:26:02.325Z,9.4
2022-11-16T08:27:02.246Z,9.4
2022-11-16T08:28:02.324Z,9.5
2022-11-16T08:29:02.233Z,9.5
2022-11-16T08:30:02.209Z,9.5
2022-11-16T08:31:02.212Z,9.5
2022-11-16T08:32:01.893Z,9.5
2022-11-16T08:33:01.872Z,9.5
2022-11-16T08:34:01.861Z,9.5
2022-11-16T08:35:01.824Z,9.4
2022-11-16T08:36:01.766Z,9.5
2022-11-16T08:37:01.704Z,9.5
2022-11-16T08:38:01.652Z,9.5
2022-11-16T08:39:01.609Z,9.5
2022-11-16T08:40:01.548Z,9.4
2022-11-16T08:41:01.486Z,9.5
2022-11-16T08:42:01.441Z,9.5
2022-11-16T08:43:01.418Z,9.5
2022-11-16T08:44:01.349Z,9.5
2022-11-16T08:45:01.353Z,9.5
2022-11-16T08:46:02.405Z,9.4
2022-11-16T08:47:02.121Z,9.3
2022-11-16T08:48:03.861Z,9.3
2022-11-16T08:49:02.214Z,9.3
2022-11-16T08:50:02.164Z,9.2
2022-11-16T08:51:16.788Z,9.3
2022-11-16T08:52:01.541Z,9.3
2022-11-16T08:53:01.490Z,9.4
2022-11-16T08:54:01.455Z,9.4
2022-11-16T08:55:01.408Z,9.4
2022-11-16T08:56:01.363Z,9.4
2022-11-16T08:57:02.316Z,9.4
2022-11-16T08:58:02.304Z,9.3
2022-11-16T08:59:01.325Z,9.5
2022-11-16T09:00:02.295Z,9.4
2022-11-16T09:01:01.346Z,9.4
2022-11-16T09:02:02.265Z,9.3
2022-11-16T09:03:02.340Z,9.4
2022-11-16T09:04:02.309Z,9.4
2022-11-16T09:05:02.342Z,9.4
2022-11-16T09:06:02.335Z,9.4
2022-11-16T09:07:01.688Z,9.3
2022-11-16T09:08:01.655Z,9.3
2022-11-16T09:09:01.603Z,9.4
2022-11-16T09:10:01.561Z,9.4
2022-11-16T09:11:01.477Z,9.4
2022-11-16T09:12:01.426Z,9.4
2022-11-16T09:13:01.395Z,9.4
2022-11-16T09:14:01.353Z,9.4
2022-11-16T09:15:02.301Z,9.3
2022-11-16T09:16:02.328Z,9.3
2022-11-16T09:17:02.193Z,9.3
2022-11-16T09:18:02.149Z,9.2
2022-11-16T09:19:02.141Z,9.3
2022-11-16T09:20:02.095Z,9.4
2022-11-16T09:21:02.118Z,9.4
2022-11-16T09:22:02.100Z,9.5
2022-11-16T09:23:02.102Z,9.6
2022-11-16T09:24:02.039Z,9.6
2022-11-16T09:25:02.026Z,9.4
2022-11-16T09:26:01.986Z,9.5
2022-11-16T09:27:01.914Z,9.5
2022-11-16T09:28:01.872Z,9.4
2022-11-16T09:29:01.827Z,9.5
2022-11-16T09:30:01.791Z,9.5
2022-11-16T09:31:01.709Z,9.5
2022-11-16T09:32:01.710Z,9.5
2022-11-16T09:33:01.697Z,9.5
2022-11-16T09:34:01.673Z,9.3
2022-11-16T09:35:01.585Z,9.3
2022-11-16T09:36:01.531Z,9.3
2022-11-16T09:37:01.505Z,9.3
2022-11-16T09:38:01.454Z,9.4
2022-11-16T09:39:30.892Z,9.3
2022-11-16T09:40:02.082Z,9.2
2022-11-16T09:41:01.990Z,9.3
2022-11-16T09:42:02.010Z,9.2
2022-11-16T09:43:01.993Z,9.3
2022-11-16T09:44:01.953Z,9.2
2022-11-16T09:45:01.902Z,9.2
2022-11-16T09:46:01.832Z,9.2
2022-11-16T09:47:01.928Z,9.3
2022-11-16T09:48:01.875Z,9.3
2022-11-16T09:49:01.811Z,9.2
2022-11-16T09:50:03.847Z,9.2
2022-11-16T09:51:02.098Z,9.1
2022-11-16T09:52:02.070Z,9.2
2022-11-16T09:53:02.005Z,9.2
2022-11-16T09:54:01.946Z,9.1
2022-11-16T09:55:01.899Z,9.2
2022-11-16T09:56:01.821Z,9
2022-11-16T09:57:01.775Z,9.2
2022-11-16T09:58:01.752Z,9.1
2022-11-16T09:59:01.691Z,9.2
2022-11-16T10:00:01.630Z,9.1
2022-11-16T10:01:01.582Z,9.2
2022-11-16T10:02:01.665Z,9.2
2022-11-16T10:03:01.577Z,9.2
2022-11-16T10:04:01.553Z,9.1
2022-11-16T10:05:01.413Z,9.1
2022-11-16T10:06:01.348Z,9.2
2022-11-16T10:07:02.383Z,9.1
2022-11-16T10:08:01.331Z,9.3
2022-11-16T10:09:02.278Z,9.3
2022-11-16T10:10:02.320Z,9.1
2022-11-16T10:11:02.296Z,9.1
2022-11-16T10:12:02.263Z,9.2
2022-11-16T10:13:02.253Z,9.3
2022-11-16T10:14:04.289Z,9.2
2022-11-16T10:15:01.329Z,9.1
2022-11-16T10:16:02.276Z,9.1
2022-11-16T10:17:01.337Z,9
2022-11-16T10:18:02.315Z,9.1
2022-11-16T10:19:02.318Z,9.1
2022-11-16T10:20:02.335Z,9
2022-11-16T10:21:02.320Z,8.9
2022-11-16T10:22:01.365Z,8.9
2022-11-16T10:23:02.299Z,9
2022-11-16T10:24:02.310Z,9.1
2022-11-16T10:25:02.289Z,9
2022-11-16T10:26:01.332Z,8.9
2022-11-16T10:27:02.343Z,9.1
2022-11-16T10:28:01.373Z,9.1
2022-11-16T10:29:01.339Z,9.1
2022-11-16T10:30:02.340Z,9.1
2022-11-16T10:31:02.307Z,8.9
2022-11-16T10:32:01.967Z,8.9
2022-11-16T10:33:02.814Z,9
2022-11-16T10:34:02.003Z,9
2022-11-16T10:35:02.002Z,8.9
2022-11-16T10:36:01.942Z,9
2022-11-16T10:37:01.912Z,8.9
2022-11-16T10:38:01.828Z,8.9
2022-11-16T10:39:01.753Z,9
2022-11-16T10:40:01.719Z,9
2022-11-16T10:41:01.646Z,8.9
2022-11-16T10:42:06.185Z,8.9
2022-11-16T10:43:01.702Z,9.3
2022-11-16T10:44:01.644Z,9.2
2022-11-16T10:45:01.593Z,9.3
2022-11-16T10:46:01.544Z,9.3
2022-11-16T10:47:01.664Z,9.3
2022-11-16T10:48:01.707Z,9.3
2022-11-16T10:49:01.556Z,9.6
2022-11-16T10:50:01.452Z,9.5
2022-11-16T10:51:01.418Z,9.3
2022-11-16T10:52:01.343Z,9.1
2022-11-16T10:53:02.346Z,9.1
2022-11-16T10:54:02.276Z,9.2
2022-11-16T10:55:02.220Z,9.1
2022-11-16T10:56:02.191Z,9.2
2022-11-16T10:57:02.161Z,9.2
2022-11-16T10:58:02.082Z,9.3
2022-11-16T10:59:02.078Z,9.3
2022-11-16T11:00:01.985Z,9.3
2022-11-16T11:01:01.972Z,9.2
2022-11-16T11:02:02.088Z,9.2
2022-11-16T11:03:02.063Z,9.2
2022-11-16T11:04:02.014Z,9.2
2022-11-16T11:05:01.961Z,9.1
2022-11-16T11:06:01.907Z,9.1
2022-11-16T11:07:01.919Z,9.1
2022-11-16T11:08:01.841Z,9.1
2022-11-16T11:09:01.812Z,9.1
2022-11-16T11:10:01.794Z,9.1
2022-11-16T11:11:01.820Z,9.1
2022-11-16T11:12:01.650Z,9.1
2022-11-16T11:13:01.626Z,9.1
2022-11-16T11:14:01.594Z,9.1
2022-11-16T11:15:01.477Z,9.1
2022-11-16T11:16:01.464Z,9.1
2022-11-16T11:17:02.165Z,9.1
2022-11-16T11:18:02.152Z,9.1
2022-11-16T11:19:02.109Z,9.2
2022-11-16T11:20:02.098Z,9.1
2022-11-16T11:21:02.040Z,9.1
2022-11-16T11:22:02.007Z,9.2
2022-11-16T11:23:01.910Z,9.1
2022-11-16T11:24:16.278Z,9.2
2022-11-16T11:25:01.992Z,9.1
2022-11-16T11:26:01.953Z,9.1
2022-11-16T11:27:01.917Z,9.1
2022-11-16T11:28:01.834Z,9.1
2022-11-16T11:29:01.782Z,9
2022-11-16T11:30:01.727Z,8.9
2022-11-16T11:31:01.675Z,8.8
2022-11-16T11:32:01.709Z,8.8
2022-11-16T11:33:01.656Z,8.7
2022-11-16T11:34:01.587Z,8.6
2022-11-16T11:35:01.543Z,8.5
2022-11-16T11:36:01.485Z,8.4
2022-11-16T11:37:01.426Z,8.4
2022-11-16T11:38:07.373Z,8.5
2022-11-16T11:39:02.301Z,8.5
2022-11-16T11:40:02.230Z,8.4
2022-11-16T11:41:02.184Z,8.4
2022-11-16T11:42:02.130Z,8.5
2022-11-16T11:43:02.086Z,8.5
2022-11-16T11:44:02.042Z,8.5
2022-11-16T11:45:01.968Z,8.5
2022-11-16T11:46:01.915Z,8.3
2022-11-16T11:48:01.802Z,8.4
2022-11-16T11:49:01.741Z,8.3
2022-11-16T11:50:01.731Z,8.3
2022-11-16T11:51:01.683Z,8.3
2022-11-16T11:52:01.630Z,8.3
2022-11-16T11:53:01.587Z,8.3
2022-11-16T11:54:01.557Z,8.2
2022-11-16T11:55:01.437Z,8.2
2022-11-16T11:56:01.383Z,8.1
2022-11-16T11:57:01.321Z,8.1
2022-11-16T11:58:02.298Z,8.2
2022-11-16T11:59:02.354Z,8.2
2022-11-16T12:00:02.294Z,8.2
2022-11-16T12:01:02.304Z,8.2
2022-11-16T12:02:02.185Z,8.2
2022-11-16T12:03:02.150Z,8.2
2022-11-16T12:04:02.205Z,8.1
2022-11-16T12:05:02.162Z,8.1
2022-11-16T12:06:02.093Z,8.1
2022-11-16T12:07:02.108Z,8.1
2022-11-16T12:08:02.043Z,8.1
2022-11-16T12:09:01.996Z,8.2
2022-11-16T12:10:01.947Z,8
2022-11-16T12:11:01.942Z,8
2022-11-16T12:12:01.857Z,8
2022-11-16T12:13:01.795Z,8
2022-11-16T12:14:01.734Z,8
2022-11-16T12:15:01.682Z,7.9
2022-11-16T12:16:01.631Z,8
2022-11-16T12:17:01.451Z,8
2022-11-16T12:18:01.398Z,8
2022-11-16T12:19:01.341Z,8
2022-11-16T12:20:02.282Z,8
2022-11-16T12:21:02.257Z,7.9
2022-11-16T12:22:02.293Z,7.9
2022-11-16T12:23:04.096Z,7.9
2022-11-16T12:24:02.334Z,7.9
2022-11-16T12:25:02.297Z,7.9
2022-11-16T12:26:02.263Z,7.9
2022-11-16T12:27:02.254Z,7.9
2022-11-16T12:28:02.253Z,7.9
2022-11-16T12:29:02.259Z,7.9
2022-11-16T12:30:02.282Z,7.9
2022-11-16T12:31:02.185Z,7.8
2022-11-16T12:32:02.102Z,7.8
2022-11-16T12:33:02.043Z,7.8
2022-11-16T12:34:01.991Z,7.8
2022-11-16T12:35:01.922Z,7.8
2022-11-16T12:36:01.870Z,7.8
2022-11-16T12:37:01.825Z,7.8
2022-11-16T12:38:01.803Z,7.8
2022-11-16T12:39:01.767Z,7.7
2022-11-16T12:40:01.705Z,7.7
2022-11-16T12:41:01.682Z,7.8
2022-11-16T12:42:01.610Z,7.8
2022-11-16T12:43:01.538Z,7.8
2022-11-16T12:44:01.519Z,7.8
2022-11-16T12:45:01.466Z,7.8
2022-11-16T12:46:01.404Z,7.9
2022-11-16T12:47:01.383Z,7.8
2022-11-16T12:48:01.337Z,7.9
2022-11-16T12:49:02.405Z,7.9
2022-11-16T12:50:02.252Z,7.9
2022-11-16T12:51:02.248Z,7.9
2022-11-16T12:52:02.234Z,7.9
2022-11-16T12:53:02.242Z,7.9
2022-11-16T12:54:02.207Z,7.9
2022-11-16T12:55:25.180Z,7.9
2022-11-16T12:56:02.027Z,7.9
2022-11-16T12:57:02.001Z,7.9
2022-11-16T12:58:01.934Z,7.9
2022-11-16T12:59:01.896Z,7.9
2022-11-16T13:00:01.861Z,7.8
2022-11-16T13:01:01.790Z,7.9
2022-11-16T13:02:01.841Z,7.9
2022-11-16T13:03:01.782Z,7.8
2022-11-16T13:04:01.726Z,7.8
2022-11-16T13:05:01.712Z,7.8
2022-11-16T13:06:01.629Z,7.8
2022-11-16T13:07:04.235Z,7.9
2022-11-16T13:08:02.072Z,7.8
2022-11-16T13:09:02.026Z,7.8
2022-11-16T13:10:01.997Z,7.8
2022-11-16T13:11:01.924Z,7.8
2022-11-16T13:12:01.905Z,7.9
2022-11-16T13:13:22.227Z,7.9
2022-11-16T13:14:02.077Z,7.9
2022-11-16T13:15:01.954Z,7.9
2022-11-16T13:16:01.927Z,7.9
2022-11-16T13:17:01.752Z,7.9
2022-11-16T13:18:01.696Z,7.9
2022-11-16T13:19:01.654Z,7.8
2022-11-16T13:20:01.614Z,7.9
2022-11-16T13:21:01.568Z,7.9
2022-11-16T13:22:01.476Z,7.9
2022-11-16T13:23:01.408Z,7.9
2022-11-16T13:24:01.369Z,7.7
2022-11-16T13:25:02.342Z,7.7
2022-11-16T13:26:02.359Z,7.8
2022-11-16T13:27:02.320Z,7.6
2022-11-16T13:28:02.231Z,7.6
2022-11-16T13:29:02.228Z,7.8
2022-11-16T13:30:02.179Z,7.8
2022-11-16T13:31:02.110Z,7.8
2022-11-16T13:32:02.125Z,7.7
2022-11-16T13:33:02.066Z,7.8
2022-11-16T13:34:02.005Z,7.7
2022-11-16T13:35:01.959Z,7.8
2022-11-16T13:36:01.915Z,7.8
2022-11-16T13:37:01.857Z,7.8
2022-11-16T13:38:01.794Z,7.9
2022-11-16T13:39:01.741Z,7.9
2022-11-16T13:40:01.644Z,7.8
2022-11-16T13:41:01.567Z,7.8
2022-11-16T13:42:01.526Z,7.8
2022-11-16T13:43:01.518Z,7.9
2022-11-16T13:44:01.429Z,7.9
2022-11-16T13:45:01.396Z,7.8